createdAt,value
2018-03-15T00:00:51.958Z,77.90
2018-03-15T00:03:25.204Z,78.10
2018-03-15T00:05:52.663Z,77.90
2018-03-15T00:08:20.099Z,77.70
2018-03-15T00:10:47.543Z,77.70
2018-03-15T00:13:15.774Z,77.80
2018-03-15T00:15:43.328Z,77.80
2018-03-15T00:18:10.842Z,77.60
2018-03-15T00:20:38.248Z,77.40
2018-03-15T00:23:05.699Z,77.50
2018-03-15T00:25:33.172Z,77.60
2018-03-15T00:28:00.748Z,77.80
2018-03-15T00:30:29.698Z,77.90
2018-03-15T00:32:57.205Z,77.80
2018-03-15T00:35:24.744Z,77.90
2018-03-15T00:37:52.192Z,77.60
2018-03-15T00:40:19.631Z,78.00
2018-03-15T00:42:47.109Z,77.80
2018-03-15T00:45:14.552Z,77.50
2018-03-15T00:47:42.027Z,77.60
2018-03-15T00:50:09.479Z,77.40
2018-03-15T00:52:37.046Z,77.40
2018-03-15T00:55:04.498Z,77.30
2018-03-15T00:57:32.667Z,76.90
2018-03-15T01:00:01.028Z,77.10
2018-03-15T01:02:28.478Z,77.10
2018-03-15T01:04:55.967Z,77.30
2018-03-15T01:07:23.527Z,77.10
2018-03-15T01:09:51.024Z,77.20
2018-03-15T01:12:38.916Z,77.30
2018-03-15T01:15:06.415Z,76.00
2018-03-15T01:17:33.876Z,77.30
2018-03-15T01:20:01.403Z,77.30
2018-03-15T01:22:28.979Z,77.40
2018-03-15T01:24:56.523Z,77.20
2018-03-15T01:27:23.979Z,77.20
2018-03-15T01:29:51.714Z,77.30
2018-03-15T01:32:19.162Z,77.00
2018-03-15T01:34:46.612Z,77.20
2018-03-15T01:37:14.124Z,77.40
2018-03-15T01:39:41.575Z,77.40
2018-03-15T01:42:09.135Z,77.50
2018-03-15T01:44:36.588Z,77.40
2018-03-15T01:47:04.059Z,77.50
2018-03-15T01:49:31.511Z,77.50
2018-03-15T01:51:58.980Z,77.40
2018-03-15T01:54:26.439Z,77.50
2018-03-15T01:56:53.986Z,77.80
2018-03-15T01:59:21.551Z,77.70
2018-03-15T02:01:50.689Z,77.60
2018-03-15T02:04:18.911Z,77.50
2018-03-15T02:06:46.688Z,77.50
2018-03-15T02:09:16.383Z,77.60
2018-03-15T02:11:43.832Z,77.60
2018-03-15T02:14:11.315Z,77.60
2018-03-15T02:16:38.842Z,77.40
2018-03-15T02:19:06.218Z,77.40
2018-03-15T02:21:33.671Z,77.50
2018-03-15T02:24:01.376Z,77.50
2018-03-15T02:26:28.866Z,77.70
2018-03-15T02:28:56.318Z,78.10
2018-03-15T02:31:24.452Z,78.20
2018-03-15T02:33:51.992Z,78.00
2018-03-15T02:36:19.447Z,78.00
2018-03-15T02:38:46.907Z,77.90
2018-03-15T02:41:14.345Z,77.80
2018-03-15T02:43:41.808Z,78.00
2018-03-15T02:46:09.296Z,78.10
2018-03-15T02:48:36.739Z,78.20
2018-03-15T02:51:11.264Z,77.90
2018-03-15T02:53:38.699Z,77.30
2018-03-15T02:56:06.986Z,77.90
2018-03-15T02:58:34.674Z,78.10
2018-03-15T03:01:02.109Z,77.70
2018-03-15T03:03:29.577Z,78.30
2018-03-15T03:05:58.068Z,78.20
2018-03-15T03:08:25.531Z,78.30
2018-03-15T03:10:53.075Z,78.30
2018-03-15T03:13:20.523Z,78.30
2018-03-15T03:15:48.033Z,78.20
2018-03-15T03:18:15.610Z,78.50
2018-03-15T03:20:43.090Z,78.40
2018-03-15T03:23:10.649Z,78.50
2018-03-15T03:25:39.645Z,78.60
2018-03-15T03:28:07.102Z,78.70
2018-03-15T03:30:35.124Z,78.90
2018-03-15T03:33:03.348Z,78.80
2018-03-15T03:35:30.791Z,78.80
2018-03-15T03:37:58.247Z,78.90
2018-03-15T03:40:25.743Z,78.70
2018-03-15T03:42:53.303Z,79.00
2018-03-15T03:48:14.846Z,79.40
2018-03-15T03:50:42.296Z,79.40
2018-03-15T03:53:09.743Z,79.40
2018-03-15T03:55:37.195Z,79.60
2018-03-15T03:58:04.647Z,79.70
2018-03-15T04:00:42.338Z,79.70
2018-03-15T04:03:09.793Z,78.50
2018-03-15T04:05:38.040Z,79.90
2018-03-15T04:08:06.261Z,80.30
2018-03-15T04:10:33.739Z,80.10
2018-03-15T04:13:01.300Z,80.10
2018-03-15T04:15:28.747Z,81.00
2018-03-15T04:17:56.593Z,79.80
2018-03-15T04:20:43.937Z,80.00
2018-03-15T04:23:11.375Z,79.40
2018-03-15T04:25:38.868Z,80.20
2018-03-15T04:28:06.319Z,80.00
2018-03-15T04:30:33.766Z,80.20
2018-03-15T04:33:01.236Z,80.20
2018-03-15T04:35:28.679Z,80.20
2018-03-15T04:37:56.132Z,80.30
2018-03-15T04:40:23.607Z,80.40
2018-03-15T04:45:44.522Z,79.20
2018-03-15T04:48:12.236Z,80.30
2018-03-15T04:50:40.480Z,80.10
2018-03-15T04:53:07.988Z,80.10
2018-03-15T04:55:35.490Z,80.10
2018-03-15T04:58:02.951Z,80.90
2018-03-15T05:00:30.515Z,79.90
2018-03-15T05:02:57.963Z,80.10
2018-03-15T05:05:25.689Z,79.70
2018-03-15T05:07:53.915Z,79.70
2018-03-15T05:10:21.359Z,79.50
2018-03-15T05:12:48.811Z,79.50
2018-03-15T05:15:16.268Z,79.50
2018-03-15T05:17:43.748Z,79.50
2018-03-15T05:20:11.349Z,79.20
2018-03-15T05:22:39.572Z,78.70
2018-03-15T05:25:07.024Z,78.70
2018-03-15T05:27:34.474Z,78.70
2018-03-15T05:30:01.936Z,78.70
2018-03-15T05:32:29.512Z,78.80
2018-03-15T05:34:56.971Z,78.50
2018-03-15T05:37:24.539Z,78.50
2018-03-15T05:39:52.000Z,78.20
2018-03-15T05:42:20.956Z,78.00
2018-03-15T05:44:48.459Z,78.00
2018-03-15T05:47:16.102Z,77.70
2018-03-15T05:49:43.661Z,78.10
2018-03-15T05:52:11.111Z,77.60
2018-03-15T05:54:38.566Z,77.50
2018-03-15T05:57:06.033Z,77.30
2018-03-15T05:59:33.487Z,77.10
2018-03-15T06:02:00.947Z,77.20
2018-03-15T06:04:28.519Z,77.10
2018-03-15T06:06:56.071Z,77.10
2018-03-15T06:09:38.720Z,76.90
2018-03-15T06:12:07.032Z,76.10
2018-03-15T06:14:34.487Z,77.30
2018-03-15T06:17:01.940Z,77.10
2018-03-15T06:19:29.382Z,76.90
2018-03-15T06:21:56.835Z,76.90
2018-03-15T06:24:25.063Z,76.50
2018-03-15T06:26:52.511Z,76.40
2018-03-15T06:29:19.974Z,76.00
2018-03-15T06:31:47.433Z,76.50
2018-03-15T06:34:14.900Z,76.40
2018-03-15T06:36:42.350Z,76.30
2018-03-15T06:39:09.916Z,76.20
2018-03-15T06:41:37.367Z,76.40
2018-03-15T06:44:05.153Z,76.40
2018-03-15T06:46:32.695Z,76.50
2018-03-15T06:49:00.380Z,76.40
2018-03-15T06:51:27.831Z,76.30
2018-03-15T06:53:55.380Z,76.40
2018-03-15T06:56:22.824Z,76.40
2018-03-15T06:58:50.625Z,75.80
2018-03-15T07:01:18.060Z,75.80
2018-03-15T07:03:46.234Z,75.30
2018-03-15T07:06:13.688Z,75.50
2018-03-15T07:08:41.148Z,75.40
2018-03-15T07:11:08.596Z,75.40
2018-03-15T07:13:36.383Z,74.70
2018-03-15T07:16:05.347Z,75.40
2018-03-15T07:18:32.823Z,75.30
2018-03-15T07:21:00.283Z,75.30
2018-03-15T07:23:27.728Z,75.60
2018-03-15T07:25:55.195Z,75.10
2018-03-15T07:28:22.754Z,75.20
2018-03-15T07:30:50.219Z,75.00
2018-03-15T07:33:17.781Z,74.90
2018-03-15T07:35:45.237Z,74.70
2018-03-15T07:38:12.798Z,74.20
2018-03-15T07:40:40.234Z,74.60
2018-03-15T07:43:07.715Z,75.40
2018-03-15T07:45:35.972Z,73.60
2018-03-15T07:48:03.442Z,73.70
2018-03-15T07:50:30.893Z,73.70
2018-03-15T07:52:58.333Z,73.30
2018-03-15T07:55:26.054Z,73.20
2018-03-15T07:57:54.247Z,72.00
2018-03-15T08:00:22.864Z,72.50
